Standish, Michigan
Current Conditions -  °F | °C
As of 7:13 AM on Monday 26 Jan 2015 (Local Time) from KIKW Reporting Station
Clear Clear  
Wind Chill: -17°   Ceiling: Unl
Heat Index: -17°   Visibility: 10mi
Dew Point: -20°   Wind: 0mph
Humidity: 81%   Direction: NA
Pressure: 30"   Gusts: NA
Location:  43.98°N, 83.96°W
Report Text: KIKW 261213Z AUTO 00000KT 10SM CLR M17/M19 A3000 RMK AO2 T11701195
Loading
Personal Weather Stations






























Interactive Weather Map New forecast layout! Learn more

10-Day Weather Forecast

Advertisements
Track Severe Weather on mobile